サンクトペテルブルク の空港の天気 - METARとTAF

プルコヴォ空港(サンクトペテルブルグ) ( ULLI / LED ) - ロシア サンクトペテルブルク
飛行場実況気象(Metar)
観測時間11/27 11:00 MSK (11/27 08:00 UTC)
風向・風速東南東 4m/s
視程10km以上
天気現象弱い雪 弱い氷雨
全天の8割程度の雲 雲底高度 240m
全天を覆う雲 雲底高度 1070m
気温-8℃
湿度79%
気圧1033hPa
METARULLI 270800Z 11004MPS 9999 -SN -FZRA BKN008 OVC035 M08/M11 Q1033 R10R/550538 NOSIG
過去の天気等 Google飛行場航空写真 Wunderground天気予報

過去48時間のMETAR

飛行場予報(TAF)
発表時間: 11/27 07:57 MSK (11/27 04:57 UTC)
予報対象時間: 27日9時 MSK ~ 28日9時 MSK
風向・風速東 3m/s 瞬間風速 8m/s
視程6000m
全天の8割程度の雲 雲底高度 490m
27日9時 MSK ~ 27日15時 MSK に一時的に
視程2000m
天気現象弱い氷霧雨 雪
全天の8割程度の雲 雲底高度 150m
全天を覆う雲 雲底高度 300m
27日15時 MSK ~ 27日20時 MSK に一時的に
視程400m
天気現象氷霧
全天を覆う雲 鉛直視程 90m
27日20時 MSK ~ 28日3時 MSK に一時的に
視程1500m
天気現象弱い氷霧雨 もや
全天を覆う雲 雲底高度 210m
TAF ULLI 270457Z 2706/2806 10003G08MPS 6000 BKN016
TEMPO 2706/2712 2000 -FZDZ SN BKN005 OVC010
TEMPO 2712/2717 0400 FZFG VV003
TEMPO 2717/2724 1500 -FZDZ BR OVC007